createdAt,value
2023-11-15T00:00:28.227Z,992.30
2023-11-15T00:00:58.227Z,992.29
2023-11-15T00:01:28.216Z,992.30
2023-11-15T00:01:58.221Z,992.31
2023-11-15T00:02:28.246Z,992.32
2023-11-15T00:02:58.402Z,992.36
2023-11-15T00:03:29.905Z,992.35
2023-11-15T00:03:58.257Z,992.40
2023-11-15T00:04:28.261Z,992.40
2023-11-15T00:04:58.216Z,992.43
2023-11-15T00:05:28.265Z,992.44
2023-11-15T00:05:58.291Z,992.45
2023-11-15T00:06:28.227Z,992.44
2023-11-15T00:06:58.168Z,992.47
2023-11-15T00:07:28.157Z,992.46
2023-11-15T00:07:58.156Z,992.50
2023-11-15T00:08:28.157Z,992.51
2023-11-15T00:08:58.156Z,992.52
2023-11-15T00:09:28.133Z,992.56
2023-11-15T00:09:58.120Z,992.57
2023-11-15T00:10:28.124Z,992.59
2023-11-15T00:10:58.110Z,992.62
2023-11-15T00:11:28.135Z,992.64
2023-11-15T00:11:58.103Z,992.60
2023-11-15T00:12:28.094Z,992.62
2023-11-15T00:12:58.089Z,992.63
2023-11-15T00:13:28.109Z,992.67
2023-11-15T00:13:58.127Z,992.62
2023-11-15T00:14:28.122Z,992.63
2023-11-15T00:14:58.070Z,992.67
2023-11-15T00:15:29.823Z,992.66
2023-11-15T00:15:58.739Z,992.68
2023-11-15T00:16:28.098Z,992.67
2023-11-15T00:16:58.045Z,992.72
2023-11-15T00:17:28.087Z,992.72
2023-11-15T00:17:58.112Z,992.73
2023-11-15T00:18:28.780Z,992.72
2023-11-15T00:18:58.040Z,992.74
2023-11-15T00:19:28.024Z,992.75
2023-11-15T00:19:58.056Z,992.76
2023-11-15T00:20:28.029Z,992.78
2023-11-15T00:20:58.016Z,992.80
2023-11-15T00:21:28.014Z,992.79
2023-11-15T00:21:57.999Z,992.80
2023-11-15T00:22:27.997Z,992.81
2023-11-15T00:22:57.986Z,992.82
2023-11-15T00:23:28.046Z,992.82
2023-11-15T00:23:58.003Z,992.82
2023-11-15T00:24:27.966Z,992.84
2023-11-15T00:24:57.963Z,992.86
2023-11-15T00:25:27.981Z,992.85
2023-11-15T00:25:57.968Z,992.87
2023-11-15T00:26:27.970Z,992.87
2023-11-15T00:26:57.967Z,992.87
2023-11-15T00:27:27.958Z,992.87
2023-11-15T00:27:57.974Z,992.89
2023-11-15T00:28:27.933Z,992.89
2023-11-15T00:28:57.920Z,992.90
2023-11-15T00:29:35.523Z,992.91
2023-11-15T00:29:57.911Z,992.92
2023-11-15T00:30:27.911Z,992.92
2023-11-15T00:30:57.923Z,992.90
2023-11-15T00:31:27.934Z,992.91
2023-11-15T00:31:57.916Z,992.92
2023-11-15T00:32:27.971Z,992.93
2023-11-15T00:32:57.946Z,992.93
2023-11-15T00:33:28.024Z,992.93
2023-11-15T00:33:57.912Z,992.94
2023-11-15T00:34:27.862Z,992.95
2023-11-15T00:34:57.876Z,992.95
2023-11-15T00:35:27.901Z,992.94
2023-11-15T00:35:57.952Z,992.96
2023-11-15T00:36:28.088Z,992.99
2023-11-15T00:37:00.456Z,992.97
2023-11-15T00:37:27.842Z,992.97
2023-11-15T00:37:57.838Z,993.00
2023-11-15T00:38:27.842Z,992.99
2023-11-15T00:38:57.868Z,992.99
2023-11-15T00:39:27.818Z,993.03
2023-11-15T00:39:57.813Z,993.03
2023-11-15T00:40:27.809Z,993.05
2023-11-15T00:40:57.800Z,993.05
2023-11-15T00:41:27.855Z,993.06
2023-11-15T00:41:57.880Z,993.07
2023-11-15T00:42:27.787Z,993.06
2023-11-15T00:42:57.805Z,993.10
2023-11-15T00:43:27.803Z,993.09
2023-11-15T00:43:57.791Z,993.11
2023-11-15T00:44:27.795Z,993.10
2023-11-15T00:44:57.775Z,993.14
2023-11-15T00:45:27.773Z,993.15
2023-11-15T00:45:57.781Z,993.15
2023-11-15T00:46:27.746Z,993.17
2023-11-15T00:46:57.751Z,993.17
2023-11-15T00:47:27.788Z,993.19
2023-11-15T00:47:57.805Z,993.21
2023-11-15T00:48:27.788Z,993.21
2023-11-15T00:48:57.730Z,993.22
2023-11-15T00:49:27.715Z,993.24
2023-11-15T00:49:57.705Z,993.25
2023-11-15T00:50:27.732Z,993.28
2023-11-15T00:50:57.774Z,993.29
2023-11-15T00:51:27.718Z,993.30
2023-11-15T00:51:57.694Z,993.31
2023-11-15T00:52:27.695Z,993.33
2023-11-15T00:52:57.689Z,993.33
2023-11-15T00:53:27.700Z,993.37
2023-11-15T00:53:57.698Z,993.38
2023-11-15T00:54:27.677Z,993.38
2023-11-15T01:02:04.178Z,993.59
2023-11-15T01:12:34.969Z,993.84
2023-11-15T01:14:36.175Z,993.86
2023-11-15T01:15:07.161Z,993.88
2023-11-15T01:18:17.332Z,993.95
2023-11-15T01:21:58.347Z,994.08
2023-11-15T01:22:41.080Z,994.09
2023-11-15T01:33:26.789Z,994.29
2023-11-15T01:34:03.622Z,994.30
2023-11-15T01:36:05.606Z,994.34
2023-11-15T01:36:58.225Z,994.36
2023-11-15T01:37:06.547Z,994.38
2023-11-15T01:37:36.546Z,994.37
2023-11-15T01:38:15.962Z,994.35
2023-11-15T01:39:53.456Z,994.35
2023-11-15T01:40:24.435Z,994.36
2023-11-15T01:40:54.436Z,994.39
2023-11-15T01:41:24.472Z,994.42
2023-11-15T01:41:54.498Z,994.38
2023-11-15T01:42:24.454Z,994.39
2023-11-15T01:42:54.410Z,994.40
2023-11-15T01:43:24.412Z,994.40
2023-11-15T01:43:54.402Z,994.40
2023-11-15T01:44:24.468Z,994.43
2023-11-15T01:44:54.490Z,994.40
2023-11-15T01:45:24.386Z,994.41
2023-11-15T01:45:54.406Z,994.43
2023-11-15T01:46:24.447Z,994.42
2023-11-15T01:46:54.457Z,994.42
2023-11-15T01:47:24.394Z,994.45
2023-11-15T01:47:54.403Z,994.47
2023-11-15T01:48:24.371Z,994.46
2023-11-15T01:48:54.347Z,994.46
2023-11-15T01:49:24.359Z,994.48
2023-11-15T01:49:54.333Z,994.51
2023-11-15T01:50:24.386Z,994.49
2023-11-15T01:50:54.346Z,994.49
2023-11-15T01:51:24.318Z,994.49
2023-11-15T01:51:54.321Z,994.49
2023-11-15T01:52:24.350Z,994.48
2023-11-15T01:52:54.430Z,994.47
2023-11-15T01:53:24.366Z,994.50
2023-11-15T01:53:54.312Z,994.47
2023-11-15T01:54:24.289Z,994.51
2023-11-15T01:54:54.302Z,994.49
2023-11-15T01:55:24.289Z,994.51
2023-11-15T01:55:54.279Z,994.49
2023-11-15T01:56:24.374Z,994.49
2023-11-15T01:56:54.298Z,994.50
2023-11-15T01:57:24.253Z,994.50
2023-11-15T01:57:54.287Z,994.52
2023-11-15T01:58:24.258Z,994.55
2023-11-15T01:58:54.278Z,994.55
2023-11-15T01:59:24.277Z,994.58
2023-11-15T01:59:54.257Z,994.60
2023-11-15T02:00:24.263Z,994.62
2023-11-15T02:00:54.228Z,994.65
2023-11-15T02:01:24.238Z,994.65
2023-11-15T02:01:54.281Z,994.67
2023-11-15T02:02:24.259Z,994.67
2023-11-15T02:02:54.324Z,994.70
2023-11-15T02:03:24.338Z,994.70
2023-11-15T02:03:54.262Z,994.73
2023-11-15T02:04:24.195Z,994.72
2023-11-15T02:04:54.189Z,994.72
2023-11-15T02:05:24.209Z,994.73
2023-11-15T02:05:54.233Z,994.73
2023-11-15T02:06:24.163Z,994.73
2023-11-15T02:06:54.171Z,994.75
2023-11-15T02:07:24.191Z,994.77
2023-11-15T02:07:54.163Z,994.78
2023-11-15T02:08:24.151Z,994.78
2023-11-15T02:08:54.189Z,994.78
2023-11-15T02:09:24.117Z,994.81
2023-11-15T02:09:54.118Z,994.81
2023-11-15T02:10:24.114Z,994.80
2023-11-15T02:10:54.116Z,994.82
2023-11-15T02:11:24.183Z,994.79
2023-11-15T02:11:54.132Z,994.83
2023-11-15T02:12:24.104Z,994.81
2023-11-15T02:12:54.098Z,994.83
2023-11-15T02:13:24.078Z,994.80
2023-11-15T02:13:54.088Z,994.87
2023-11-15T02:14:24.147Z,994.85
2023-11-15T02:14:54.136Z,994.87
2023-11-15T02:15:24.070Z,994.86
2023-11-15T02:15:54.054Z,994.91
2023-11-15T02:16:24.072Z,994.92
2023-11-15T02:16:54.078Z,994.92
2023-11-15T02:17:24.258Z,994.94
2023-11-15T02:17:54.171Z,994.96
2023-11-15T02:18:24.066Z,994.97
2023-11-15T02:18:54.028Z,994.99
2023-11-15T02:19:24.020Z,994.99
2023-11-15T02:19:54.037Z,995.00
2023-11-15T02:20:24.098Z,995.02
2023-11-15T02:20:54.055Z,995.02
2023-11-15T02:21:24.041Z,995.02
2023-11-15T02:21:53.993Z,995.02
2023-11-15T02:22:23.980Z,995.03
2023-11-15T02:22:53.975Z,995.03
2023-11-15T02:23:23.981Z,995.04
2023-11-15T02:23:54.055Z,995.05
2023-11-15T02:24:23.967Z,995.06
2023-11-15T02:24:53.954Z,995.05
2023-11-15T02:25:23.970Z,995.06
2023-11-15T02:25:53.969Z,995.08
2023-11-15T02:26:23.963Z,995.08
2023-11-15T02:26:53.998Z,995.09
2023-11-15T02:27:23.957Z,995.09
2023-11-15T02:27:53.923Z,995.11
2023-11-15T02:28:23.935Z,995.05
2023-11-15T02:28:53.932Z,995.09
2023-11-15T02:29:23.958Z,995.09
2023-11-15T02:29:53.940Z,995.10
2023-11-15T02:30:23.901Z,995.13
2023-11-15T02:30:53.958Z,995.15
2023-11-15T02:31:23.911Z,995.16
2023-11-15T02:31:53.882Z,995.16
2023-11-15T02:32:23.899Z,995.15
2023-11-15T02:32:53.917Z,995.16
2023-11-15T02:33:23.976Z,995.18
2023-11-15T02:33:53.862Z,995.18
2023-11-15T02:34:23.858Z,995.18
2023-11-15T02:34:53.887Z,995.19
2023-11-15T02:35:23.918Z,995.18
2023-11-15T02:35:53.866Z,995.17
2023-11-15T02:36:23.845Z,995.18
2023-11-15T02:36:53.836Z,995.21
2023-11-15T02:37:23.841Z,995.22
2023-11-15T02:37:53.816Z,995.20
2023-11-15T02:38:23.825Z,995.21
2023-11-15T02:38:53.828Z,995.22
2023-11-15T02:39:23.798Z,995.23
2023-11-15T02:39:53.808Z,995.23
2023-11-15T02:40:23.794Z,995.25
2023-11-15T02:40:53.787Z,995.25
2023-11-15T02:41:23.833Z,995.26
2023-11-15T02:41:53.848Z,995.27
2023-11-15T02:42:23.779Z,995.29
2023-11-15T02:42:53.781Z,995.27
2023-11-15T02:43:23.752Z,995.31
2023-11-15T02:43:53.769Z,995.31
2023-11-15T02:44:23.778Z,995.32
2023-11-15T02:44:53.771Z,995.30
2023-11-15T02:45:23.732Z,995.33
2023-11-15T02:45:53.730Z,995.34
2023-11-15T02:46:23.997Z,995.34
2023-11-15T02:46:53.730Z,995.36
2023-11-15T02:47:23.783Z,995.34
2023-11-15T02:47:53.733Z,995.37
2023-11-15T02:48:23.846Z,995.36
2023-11-15T02:48:53.764Z,995.40
2023-11-15T02:50:34.732Z,995.45
2023-11-15T02:51:05.728Z,995.47
2023-11-15T02:51:35.684Z,995.46
2023-11-15T02:52:05.679Z,995.48
2023-11-15T02:52:35.690Z,995.53
2023-11-15T02:53:05.672Z,995.53
2023-11-15T02:53:35.692Z,995.53
2023-11-15T02:54:05.663Z,995.54
2023-11-15T02:54:35.658Z,995.56
2023-11-15T02:55:05.661Z,995.57
2023-11-15T02:55:35.641Z,995.59
2023-11-15T02:56:05.651Z,995.60
2023-11-15T02:56:35.732Z,995.59
2023-11-15T02:57:05.633Z,995.60
2023-11-15T02:57:35.628Z,995.60
2023-11-15T02:58:05.645Z,995.63
2023-11-15T02:58:35.637Z,995.62
2023-11-15T02:59:05.621Z,995.62
2023-11-15T02:59:35.766Z,995.64
2023-11-15T03:00:05.625Z,995.66
2023-11-15T03:00:35.593Z,995.67
2023-11-15T03:01:05.587Z,995.67
2023-11-15T03:01:35.621Z,995.70
2023-11-15T03:02:05.569Z,995.70
2023-11-15T03:02:35.633Z,995.70
2023-11-15T03:03:05.981Z,995.72
2023-11-15T03:03:35.844Z,995.73
2023-11-15T03:04:05.655Z,995.72
2023-11-15T03:04:35.569Z,995.74
2023-11-15T03:05:05.552Z,995.74
2023-11-15T03:05:35.561Z,995.74
2023-11-15T03:06:05.645Z,995.74
2023-11-15T03:06:35.529Z,995.74
2023-11-15T03:07:05.540Z,995.78
2023-11-15T03:07:35.515Z,995.77
2023-11-15T03:08:05.532Z,995.79
2023-11-15T03:08:35.584Z,995.79
2023-11-15T03:09:05.513Z,995.84
2023-11-15T03:09:35.493Z,995.85
2023-11-15T03:10:05.488Z,995.85
2023-11-15T03:10:35.482Z,995.85
2023-11-15T03:11:05.472Z,995.88
2023-11-15T03:11:35.478Z,995.88
2023-11-15T03:12:05.465Z,995.89
2023-11-15T03:12:35.464Z,995.89
2023-11-15T03:13:05.484Z,995.92
2023-11-15T03:13:35.454Z,995.91
2023-11-15T03:14:05.459Z,995.93
2023-11-15T03:14:36.140Z,995.94
2023-11-15T03:15:05.460Z,995.97
2023-11-15T03:15:35.440Z,995.97
2023-11-15T03:16:05.428Z,995.98
2023-11-15T03:16:35.439Z,995.99
2023-11-15T03:17:05.415Z,995.99
2023-11-15T03:17:35.483Z,996.01
2023-11-15T03:18:05.509Z,996.01
2023-11-15T03:18:35.514Z,996.01
2023-11-15T03:19:05.387Z,996.04
2023-11-15T03:19:35.424Z,996.03
2023-11-15T03:20:05.397Z,996.03
2023-11-15T03:20:35.403Z,996.06
2023-11-15T03:21:05.388Z,996.06
2023-11-15T03:21:35.374Z,996.07
2023-11-15T03:22:05.361Z,996.08
2023-11-15T03:22:35.369Z,996.07
2023-11-15T03:23:05.346Z,996.08
2023-11-15T03:23:35.352Z,996.09
2023-11-15T03:24:05.342Z,996.09
2023-11-15T03:24:35.330Z,996.11
2023-11-15T03:25:05.328Z,996.11
2023-11-15T03:25:35.332Z,996.13
2023-11-15T03:26:05.324Z,996.15
2023-11-15T03:26:35.339Z,996.15
2023-11-15T03:27:05.302Z,996.17
2023-11-15T03:27:35.297Z,996.18
2023-11-15T03:28:05.295Z,996.17
2023-11-15T03:28:35.278Z,996.19
2023-11-15T03:29:05.317Z,996.21
2023-11-15T03:29:35.290Z,996.22
2023-11-15T03:30:05.342Z,996.23
2023-11-15T03:30:35.268Z,996.23
2023-11-15T03:31:05.287Z,996.23
2023-11-15T03:31:35.273Z,996.24
2023-11-15T03:32:05.312Z,996.23
2023-11-15T03:32:35.387Z,996.25
2023-11-15T03:33:05.365Z,996.27
2023-11-15T03:33:35.384Z,996.26
2023-11-15T03:34:05.262Z,996.27
2023-11-15T03:34:35.221Z,996.26
2023-11-15T03:35:05.227Z,996.26
2023-11-15T03:35:35.225Z,996.25
2023-11-15T03:36:05.231Z,996.24
2023-11-15T03:36:35.220Z,996.32
2023-11-15T03:37:05.205Z,996.26
2023-11-15T03:37:35.185Z,996.25
2023-11-15T03:38:05.184Z,996.27
2023-11-15T03:38:35.187Z,996.29
2023-11-15T03:39:05.182Z,996.30
2023-11-15T03:39:35.158Z,996.30
2023-11-15T03:40:05.158Z,996.30
2023-11-15T03:40:35.166Z,996.33
2023-11-15T03:41:05.161Z,996.35
2023-11-15T03:41:35.166Z,996.36
2023-11-15T03:42:05.150Z,996.37
2023-11-15T03:42:35.129Z,996.43
2023-11-15T03:43:05.153Z,996.41
2023-11-15T03:43:35.120Z,996.40
2023-11-15T03:44:05.117Z,996.43
2023-11-15T03:44:35.151Z,996.44
2023-11-15T03:45:05.160Z,996.43
2023-11-15T03:45:35.124Z,996.46
2023-11-15T03:46:05.163Z,996.49
2023-11-15T03:46:35.124Z,996.51
2023-11-15T03:47:05.134Z,996.50
2023-11-15T03:47:35.139Z,996.53
2023-11-15T03:48:05.209Z,996.54
2023-11-15T03:48:35.141Z,996.55
2023-11-15T03:49:05.063Z,996.54
2023-11-15T03:49:35.053Z,996.55
2023-11-15T03:50:05.047Z,996.56
2023-11-15T03:50:35.061Z,996.55
2023-11-15T03:51:05.062Z,996.55
2023-11-15T03:51:35.039Z,996.56
2023-11-15T03:52:05.025Z,996.55
2023-11-15T03:52:35.048Z,996.55
2023-11-15T03:53:05.053Z,996.54
2023-11-15T03:53:35.057Z,996.55
2023-11-15T03:54:05.055Z,996.56
2023-11-15T03:54:35.010Z,996.58
2023-11-15T03:55:05.021Z,996.59
2023-11-15T03:55:35.013Z,996.60
2023-11-15T03:56:04.982Z,996.61
2023-11-15T03:56:35.012Z,996.62
2023-11-15T03:57:05.024Z,996.63
2023-11-15T03:57:35.006Z,996.63
2023-11-15T03:58:04.961Z,996.64
2023-11-15T03:58:34.973Z,996.64
2023-11-15T03:59:04.955Z,996.63
2023-11-15T03:59:34.989Z,996.63
2023-11-15T04:00:05.008Z,996.65
2023-11-15T04:00:34.937Z,996.65
2023-11-15T04:01:04.945Z,996.68
2023-11-15T04:01:37.700Z,996.68
2023-11-15T04:02:04.962Z,996.71
2023-11-15T04:02:34.990Z,996.72
2023-11-15T04:03:05.154Z,996.73
2023-11-15T04:03:35.107Z,996.75
2023-11-15T04:04:05.024Z,996.75
2023-11-15T04:04:35.224Z,996.77
2023-11-15T04:05:04.955Z,996.79
2023-11-15T04:05:34.979Z,996.81
2023-11-15T04:06:04.907Z,996.83
2023-11-15T04:06:34.864Z,996.85
2023-11-15T04:07:04.884Z,996.83
2023-11-15T04:07:34.856Z,996.85
2023-11-15T04:08:04.849Z,996.85
2023-11-15T04:08:34.907Z,996.87
2023-11-15T04:09:04.853Z,996.89
2023-11-15T04:09:34.879Z,996.91
2023-11-15T04:10:04.843Z,996.93
2023-11-15T04:10:34.860Z,996.95
2023-11-15T04:11:04.823Z,996.95
2023-11-15T04:11:34.839Z,996.94
2023-11-15T04:12:04.804Z,996.95
2023-11-15T04:12:34.807Z,996.97
2023-11-15T04:13:04.801Z,996.98
2023-11-15T04:13:34.821Z,996.99
2023-11-15T04:14:04.831Z,996.98
2023-11-15T04:14:34.778Z,996.97
2023-11-15T04:15:06.156Z,996.99
2023-11-15T04:15:34.772Z,996.96
2023-11-15T04:16:04.825Z,997.00
2023-11-15T04:16:34.796Z,997.00
2023-11-15T04:17:04.763Z,997.02
2023-11-15T04:17:34.799Z,997.00
2023-11-15T04:18:04.801Z,996.98
2023-11-15T04:18:34.759Z,996.97
2023-11-15T04:19:04.735Z,997.03
2023-11-15T04:19:34.731Z,997.07
2023-11-15T04:20:04.720Z,997.10
2023-11-15T04:20:34.762Z,997.11
2023-11-15T04:21:04.717Z,997.14
2023-11-15T04:21:34.709Z,997.14
2023-11-15T04:22:12.031Z,997.18
2023-11-15T04:22:34.710Z,997.20
2023-11-15T04:23:04.688Z,997.20
2023-11-15T04:23:34.733Z,997.22
2023-11-15T04:24:04.692Z,997.22
2023-11-15T04:24:34.698Z,997.22
2023-11-15T04:25:04.667Z,997.25
2023-11-15T04:25:34.664Z,997.25
2023-11-15T04:26:04.666Z,997.27
2023-11-15T04:26:34.673Z,997.29
2023-11-15T04:27:04.642Z,997.29
2023-11-15T04:27:34.662Z,997.32
2023-11-15T04:28:04.680Z,997.30
2023-11-15T04:28:34.662Z,997.29
2023-11-15T04:29:04.635Z,997.31
2023-11-15T04:29:34.658Z,997.33
2023-11-15T04:30:04.622Z,997.32
2023-11-15T04:30:34.630Z,997.34
2023-11-15T04:31:04.611Z,997.34
2023-11-15T04:31:34.691Z,997.36
2023-11-15T04:32:04.599Z,997.35
2023-11-15T04:32:34.673Z,997.38
2023-11-15T04:33:04.644Z,997.39
2023-11-15T04:33:34.580Z,997.42
2023-11-15T04:34:04.574Z,997.43
2023-11-15T04:34:34.584Z,997.44
2023-11-15T04:35:04.575Z,997.46
2023-11-15T04:35:34.607Z,997.49
2023-11-15T04:36:04.567Z,997.50
2023-11-15T04:36:34.607Z,997.52
2023-11-15T04:37:04.564Z,997.54
2023-11-15T04:37:34.534Z,997.56
2023-11-15T04:38:04.597Z,997.55
2023-11-15T04:38:34.542Z,997.56
2023-11-15T04:39:04.548Z,997.56
2023-11-15T04:39:34.513Z,997.58
2023-11-15T04:40:04.511Z,997.60
2023-11-15T04:40:34.499Z,997.61
2023-11-15T04:41:04.511Z,997.62
2023-11-15T04:41:34.577Z,997.61
2023-11-15T04:42:04.584Z,997.62
2023-11-15T04:42:34.497Z,997.66
2023-11-15T04:43:04.472Z,997.64
2023-11-15T04:43:34.489Z,997.64
2023-11-15T04:44:04.465Z,997.66
2023-11-15T04:44:34.476Z,997.67
2023-11-15T04:45:04.509Z,997.69
2023-11-15T04:45:34.449Z,997.68
2023-11-15T04:46:04.487Z,997.69
2023-11-15T04:46:34.476Z,997.70
2023-11-15T04:47:04.444Z,997.72
2023-11-15T04:47:34.520Z,997.73
2023-11-15T04:48:04.572Z,997.72
2023-11-15T04:48:34.605Z,997.73
2023-11-15T04:49:04.437Z,997.74
2023-11-15T04:49:34.404Z,997.73
2023-11-15T04:50:04.420Z,997.74
2023-11-15T04:50:34.430Z,997.75
2023-11-15T04:51:04.461Z,997.77
2023-11-15T04:51:34.389Z,997.75
2023-11-15T04:52:04.376Z,997.78
2023-11-15T04:52:34.373Z,997.77
2023-11-15T04:53:04.373Z,997.79
2023-11-15T04:53:34.416Z,997.81
2023-11-15T04:54:04.417Z,997.80
2023-11-15T04:54:34.349Z,997.82
2023-11-15T04:55:04.350Z,997.80
2023-11-15T04:55:34.419Z,997.81
2023-11-15T04:56:04.374Z,997.84
2023-11-15T04:56:34.331Z,997.84
2023-11-15T04:57:04.374Z,997.84
2023-11-15T04:57:34.323Z,997.84
2023-11-15T04:58:04.323Z,997.82
2023-11-15T04:58:34.323Z,997.81
2023-11-15T04:59:04.343Z,997.85
2023-11-15T04:59:34.350Z,997.85
2023-11-15T05:00:04.358Z,997.85
2023-11-15T05:00:34.301Z,997.85
2023-11-15T05:01:04.308Z,997.86
2023-11-15T05:01:34.365Z,997.85
2023-11-15T05:02:04.272Z,997.87
2023-11-15T05:02:34.334Z,997.88
2023-11-15T05:03:04.565Z,997.88
2023-11-15T05:03:34.415Z,997.90
2023-11-15T05:04:04.600Z,997.90
2023-11-15T05:04:34.378Z,997.90
2023-11-15T05:05:04.316Z,997.89
2023-11-15T05:05:34.284Z,997.91
2023-11-15T05:06:04.277Z,997.92
2023-11-15T05:06:34.239Z,997.93
2023-11-15T05:07:04.218Z,997.92
2023-11-15T05:07:34.206Z,997.92
2023-11-15T05:08:04.222Z,997.94
2023-11-15T05:08:34.240Z,997.95
2023-11-15T05:09:04.279Z,997.95
2023-11-15T05:09:34.209Z,997.97
2023-11-15T05:10:04.247Z,997.98
2023-11-15T05:10:34.177Z,997.98
2023-11-15T05:11:04.188Z,997.97
2023-11-15T05:11:34.193Z,997.99
2023-11-15T05:12:04.196Z,997.97
2023-11-15T05:12:34.165Z,997.98
2023-11-15T05:13:04.148Z,997.99
2023-11-15T05:13:34.160Z,997.99
2023-11-15T05:14:04.141Z,997.99
2023-11-15T05:14:34.154Z,998.00
2023-11-15T05:15:04.151Z,998.00
2023-11-15T05:15:34.286Z,998.01
2023-11-15T05:16:04.134Z,998.02
2023-11-15T05:16:34.123Z,998.03
2023-11-15T05:17:04.107Z,998.05
2023-11-15T05:17:34.174Z,998.06
2023-11-15T05:18:04.187Z,998.05
2023-11-15T05:18:34.211Z,998.07
2023-11-15T05:19:04.087Z,998.09
2023-11-15T05:19:34.079Z,998.09
2023-11-15T05:20:04.094Z,998.11
2023-11-15T05:20:34.160Z,998.13
2023-11-15T05:21:04.086Z,998.13
2023-11-15T05:21:34.062Z,998.14
2023-11-15T05:22:04.067Z,998.13
2023-11-15T05:22:34.057Z,998.13
2023-11-15T05:23:04.059Z,998.14
2023-11-15T05:23:34.160Z,998.12
2023-11-15T05:24:04.302Z,998.13
2023-11-15T05:24:34.028Z,998.12
2023-11-15T05:25:04.035Z,998.14
2023-11-15T05:25:34.023Z,998.14
2023-11-15T05:26:04.050Z,998.16
2023-11-15T05:26:34.082Z,998.17
2023-11-15T05:27:04.036Z,998.19
2023-11-15T05:27:33.992Z,998.20
2023-11-15T05:28:03.992Z,998.22
2023-11-15T05:28:33.991Z,998.23
2023-11-15T05:29:03.997Z,998.25
2023-11-15T05:29:33.983Z,998.24
2023-11-15T05:30:04.006Z,998.26
2023-11-15T05:30:33.969Z,998.28
2023-11-15T05:31:03.959Z,998.29
2023-11-15T05:31:34.021Z,998.31
2023-11-15T05:32:03.960Z,998.32
2023-11-15T05:32:34.014Z,998.32
2023-11-15T05:33:04.059Z,998.32
2023-11-15T05:33:34.038Z,998.33
2023-11-15T05:34:03.933Z,998.33
2023-11-15T05:34:33.916Z,998.33
2023-11-15T05:35:03.918Z,998.34
2023-11-15T05:35:33.999Z,998.33
2023-11-15T05:36:03.966Z,998.34
2023-11-15T05:36:33.899Z,998.34
2023-11-15T05:37:03.912Z,998.36
2023-11-15T05:37:33.934Z,998.36
2023-11-15T05:38:03.929Z,998.37
2023-11-15T05:38:33.890Z,998.39
2023-11-15T05:39:03.933Z,998.40
2023-11-15T05:39:33.868Z,998.41
2023-11-15T05:40:03.885Z,998.43
2023-11-15T05:40:33.871Z,998.44
2023-11-15T05:41:03.862Z,998.45
2023-11-15T05:41:33.921Z,998.46
2023-11-15T05:42:03.868Z,998.44
2023-11-15T05:42:33.846Z,998.45
2023-11-15T05:43:03.839Z,998.45
2023-11-15T05:43:33.835Z,998.44
2023-11-15T05:44:03.831Z,998.44
2023-11-15T05:44:33.921Z,998.44
2023-11-15T05:45:03.818Z,998.43
2023-11-15T05:45:33.804Z,998.43
2023-11-15T05:46:03.833Z,998.43
2023-11-15T05:46:33.831Z,998.43
2023-11-15T05:47:03.799Z,998.44
2023-11-15T05:47:33.828Z,998.46
2023-11-15T05:48:03.838Z,998.47
2023-11-15T05:48:33.828Z,998.47
2023-11-15T05:49:03.763Z,998.47
2023-11-15T05:49:33.764Z,998.49
2023-11-15T05:50:03.751Z,998.48
2023-11-15T05:50:33.796Z,998.46
2023-11-15T05:51:03.773Z,998.48
2023-11-15T05:51:33.751Z,998.48
2023-11-15T05:52:03.771Z,998.46
2023-11-15T05:52:33.729Z,998.46
2023-11-15T05:53:03.731Z,998.48
2023-11-15T05:53:33.731Z,998.49
2023-11-15T05:54:03.791Z,998.48
2023-11-15T05:54:33.708Z,998.49
2023-11-15T05:55:03.710Z,998.50
2023-11-15T05:55:33.718Z,998.50
2023-11-15T05:56:03.706Z,998.51
2023-11-15T05:56:33.734Z,998.51
2023-11-15T05:57:03.724Z,998.51
2023-11-15T05:57:33.685Z,998.52
2023-11-15T05:58:03.673Z,998.51
2023-11-15T05:58:33.664Z,998.51
2023-11-15T05:59:03.793Z,998.50
2023-11-15T05:59:33.710Z,998.50
2023-11-15T06:00:03.684Z,998.50
2023-11-15T06:00:33.642Z,998.49
2023-11-15T06:01:03.632Z,998.50
2023-11-15T06:01:33.652Z,998.51
2023-11-15T06:02:03.717Z,998.51
2023-11-15T06:02:33.719Z,998.51
2023-11-15T06:03:03.667Z,998.52
2023-11-15T06:03:33.648Z,998.52
2023-11-15T06:04:03.632Z,998.53
2023-11-15T06:04:33.663Z,998.55
2023-11-15T06:05:03.612Z,998.56
2023-11-15T06:05:33.659Z,998.57
2023-11-15T06:06:03.670Z,998.58
2023-11-15T06:06:33.572Z,998.58
2023-11-15T06:07:03.586Z,998.59
2023-11-15T06:07:33.572Z,998.59
2023-11-15T06:08:05.285Z,998.59
2023-11-15T06:08:33.577Z,998.61
2023-11-15T06:09:03.565Z,998.63
2023-11-15T06:09:33.545Z,998.62
2023-11-15T06:10:03.551Z,998.63
2023-11-15T06:10:33.558Z,998.64
2023-11-15T06:11:03.535Z,998.63
2023-11-15T06:11:33.557Z,998.63
2023-11-15T06:12:03.553Z,998.63
2023-11-15T06:12:33.510Z,998.64
2023-11-15T06:13:03.516Z,998.64
2023-11-15T06:13:33.508Z,998.66
2023-11-15T06:14:03.502Z,998.67
2023-11-15T06:14:33.509Z,998.66
2023-11-15T06:15:03.636Z,998.67
2023-11-15T06:15:33.538Z,998.68
2023-11-15T06:16:03.528Z,998.68
2023-11-15T06:16:33.512Z,998.69
2023-11-15T06:17:03.514Z,998.70
2023-11-15T06:17:33.536Z,998.70
2023-11-15T06:18:03.488Z,998.70
2023-11-15T06:18:33.531Z,998.71
2023-11-15T06:19:03.442Z,998.71
2023-11-15T06:19:33.451Z,998.72
2023-11-15T06:20:06.912Z,998.71
2023-11-15T06:20:33.467Z,998.73
2023-11-15T06:21:03.473Z,998.74
2023-11-15T06:21:33.459Z,998.74
2023-11-15T06:22:03.466Z,998.75
2023-11-15T06:22:33.403Z,998.76
2023-11-15T06:23:03.405Z,998.77
2023-11-15T06:23:33.407Z,998.77
2023-11-15T06:24:03.407Z,998.78
2023-11-15T06:24:33.386Z,998.79
2023-11-15T06:25:03.373Z,998.80
2023-11-15T06:25:33.380Z,998.81
2023-11-15T06:26:03.368Z,998.80
2023-11-15T06:26:33.384Z,998.80
2023-11-15T06:27:03.444Z,998.80
2023-11-15T06:27:33.371Z,998.80
2023-11-15T06:28:03.377Z,998.80
2023-11-15T06:28:33.341Z,998.80
2023-11-15T06:29:03.337Z,998.81
2023-11-15T06:29:33.368Z,998.82
2023-11-15T06:30:03.376Z,998.82
2023-11-15T06:30:33.394Z,998.82
2023-11-15T06:31:03.314Z,998.83
2023-11-15T06:31:33.303Z,998.84
2023-11-15T06:32:03.297Z,998.85
2023-11-15T06:32:33.382Z,998.86
2023-11-15T06:33:03.485Z,998.87
2023-11-15T06:33:33.608Z,998.89
2023-11-15T06:34:03.445Z,998.89
2023-11-15T06:34:33.321Z,998.91
2023-11-15T06:35:03.263Z,998.92
2023-11-15T06:35:33.292Z,998.93
2023-11-15T06:36:03.316Z,998.96
2023-11-15T06:36:33.250Z,998.96
2023-11-15T06:37:03.246Z,998.96
2023-11-15T06:37:33.240Z,998.96
2023-11-15T06:38:03.258Z,998.97
2023-11-15T06:38:33.227Z,998.97
2023-11-15T06:39:03.275Z,999.00
2023-11-15T06:39:33.221Z,999.00
2023-11-15T06:40:03.213Z,998.99
2023-11-15T06:40:33.218Z,998.98
2023-11-15T06:41:03.198Z,998.99
2023-11-15T06:41:33.201Z,999.01
2023-11-15T06:42:03.265Z,999.00
2023-11-15T06:42:33.185Z,998.99
2023-11-15T06:43:03.196Z,999.00
2023-11-15T06:43:33.184Z,998.99
2023-11-15T06:44:03.167Z,998.98
2023-11-15T06:44:33.208Z,999.01
2023-11-15T06:45:03.190Z,999.01
2023-11-15T06:45:33.151Z,999.01
2023-11-15T06:46:03.144Z,999.02
2023-11-15T06:46:33.162Z,999.03
2023-11-15T06:47:03.162Z,999.03
2023-11-15T06:47:33.306Z,999.04
2023-11-15T06:48:03.308Z,999.04
2023-11-15T06:48:33.210Z,999.05
2023-11-15T06:49:03.122Z,999.06
2023-11-15T06:49:33.149Z,999.07
2023-11-15T06:50:03.102Z,999.09
2023-11-15T06:50:33.118Z,999.11
2023-11-15T06:51:03.150Z,999.14
2023-11-15T06:51:33.115Z,999.12
2023-11-15T06:52:03.095Z,999.14
2023-11-15T06:52:33.081Z,999.12
2023-11-15T06:53:03.015Z,999.12
2023-11-15T06:53:33.134Z,999.15